createdAt,value
2022-12-15T00:02:49.621Z,-4.80
2022-12-15T00:08:09.913Z,-4.80
2022-12-15T00:13:32.260Z,-4.80
2022-12-15T00:18:53.056Z,-4.90
2022-12-15T00:24:13.318Z,-4.90
2022-12-15T00:29:34.015Z,-5.00
2022-12-15T00:34:54.432Z,-5.00
2022-12-15T00:39:59.256Z,-5.00
2022-12-15T00:45:01.561Z,-5.10
2022-12-15T00:50:22.466Z,-5.20
2022-12-15T00:55:42.723Z,-5.20
2022-12-15T01:01:03.165Z,-5.20
2022-12-15T01:06:24.970Z,-5.20
2022-12-15T01:11:45.042Z,-5.20
2022-12-15T01:17:05.060Z,-5.20
2022-12-15T01:22:07.082Z,-5.30
2022-12-15T01:27:08.772Z,-5.30
2022-12-15T01:32:10.550Z,-5.30
2022-12-15T01:37:12.307Z,-5.30
2022-12-15T01:42:14.369Z,-5.30
2022-12-15T01:47:16.283Z,-5.40
2022-12-15T01:52:18.732Z,-5.40
2022-12-15T01:57:26.917Z,-5.50
2022-12-15T02:02:32.360Z,-5.50
2022-12-15T02:07:36.130Z,-5.50
2022-12-15T02:13:07.557Z,-5.40
2022-12-15T02:18:33.149Z,-5.40
2022-12-15T02:23:59.416Z,-5.50
2022-12-15T02:29:32.292Z,-5.50
2022-12-15T02:34:47.912Z,-5.50
2022-12-15T02:39:49.693Z,-5.50
2022-12-15T02:45:05.771Z,-5.50
2022-12-15T02:50:35.570Z,-5.50
2022-12-15T02:55:55.391Z,-5.60
2022-12-15T03:01:09.916Z,-5.60
2022-12-15T03:06:11.951Z,-5.60
2022-12-15T03:11:13.667Z,-5.70
2022-12-15T03:16:15.493Z,-5.70
2022-12-15T03:21:17.236Z,-5.70
2022-12-15T03:26:18.957Z,-5.70
2022-12-15T03:31:20.757Z,-5.70
2022-12-15T03:36:25.646Z,-5.60
2022-12-15T03:41:27.389Z,-5.60
2022-12-15T03:46:29.150Z,-5.60
2022-12-15T03:51:30.930Z,-5.60
2022-12-15T03:56:33.022Z,-5.60
2022-12-15T04:01:36.565Z,-5.60
2022-12-15T04:06:38.321Z,-5.50
2022-12-15T04:11:39.963Z,-5.50
2022-12-15T04:16:41.724Z,-5.50
2022-12-15T04:21:43.420Z,-5.50
2022-12-15T04:27:03.863Z,-5.50
2022-12-15T04:32:24.051Z,-5.50
2022-12-15T04:37:44.598Z,-5.50
2022-12-15T04:43:06.136Z,-5.50
2022-12-15T04:48:26.791Z,-5.50
2022-12-15T04:53:47.079Z,-5.50
2022-12-15T04:59:07.382Z,-5.50
2022-12-15T05:04:27.755Z,-5.60
2022-12-15T05:09:48.029Z,-5.50
2022-12-15T05:15:08.110Z,-5.50
2022-12-15T05:20:28.532Z,-5.50
2022-12-15T05:25:48.981Z,-5.50
2022-12-15T05:31:09.406Z,-5.50
2022-12-15T05:36:11.091Z,-5.50
2022-12-15T05:41:12.776Z,-5.50
2022-12-15T05:46:14.848Z,-5.60
2022-12-15T05:51:16.624Z,-5.60
2022-12-15T05:56:18.285Z,-5.60
2022-12-15T06:01:20.234Z,-5.50
2022-12-15T06:06:22.053Z,-5.60
2022-12-15T06:11:23.810Z,-5.50
2022-12-15T06:16:28.149Z,-5.60
2022-12-15T06:21:35.366Z,-5.50
2022-12-15T06:26:39.076Z,-5.60
2022-12-15T06:31:41.585Z,-5.50
2022-12-15T06:36:44.095Z,-5.50
2022-12-15T06:41:45.834Z,-5.60
2022-12-15T06:46:47.732Z,-5.60
2022-12-15T06:51:50.641Z,-5.50
2022-12-15T06:56:52.356Z,-5.50
2022-12-15T07:01:54.173Z,-5.50
2022-12-15T07:06:56.831Z,-5.50
2022-12-15T07:11:58.618Z,-5.50
2022-12-15T07:17:00.333Z,-5.40
2022-12-15T07:22:02.102Z,-5.40
2022-12-15T07:27:03.843Z,-5.30
2022-12-15T07:32:05.889Z,-5.30
2022-12-15T07:37:08.249Z,-5.30
2022-12-15T07:42:09.943Z,-5.30
2022-12-15T07:47:11.668Z,-5.20
2022-12-15T07:52:14.099Z,-5.20
2022-12-15T07:57:16.241Z,-5.10
2022-12-15T08:02:18.565Z,-5.00
2022-12-15T08:07:20.486Z,-5.00
2022-12-15T08:12:22.215Z,-4.90
2022-12-15T08:17:23.990Z,-4.90
2022-12-15T08:22:25.976Z,-4.80
2022-12-15T08:27:27.687Z,-4.80
2022-12-15T08:32:29.452Z,-4.70
2022-12-15T08:37:31.403Z,-4.70
2022-12-15T08:42:35.111Z,-4.60
2022-12-15T08:47:36.868Z,-4.50
2022-12-15T08:52:55.365Z,-4.50
2022-12-15T08:58:03.465Z,-4.40
2022-12-15T09:03:05.417Z,-4.40
2022-12-15T09:08:07.175Z,-4.30
2022-12-15T09:13:12.035Z,-4.20
2022-12-15T09:18:13.779Z,-4.10
2022-12-15T09:23:15.463Z,-4.00
2022-12-15T09:28:26.384Z,-4.00
2022-12-15T09:33:28.439Z,-3.90
2022-12-15T09:38:30.810Z,-3.70
2022-12-15T09:43:34.982Z,-3.50
2022-12-15T09:48:46.192Z,-3.20
2022-12-15T09:53:56.109Z,-2.70
2022-12-15T09:59:13.689Z,-2.60
2022-12-15T10:04:39.229Z,-2.50
2022-12-15T10:09:41.015Z,-2.50
2022-12-15T10:14:52.384Z,-2.60
2022-12-15T10:20:14.593Z,-2.60
2022-12-15T10:25:29.351Z,-2.50
2022-12-15T10:30:33.177Z,-2.10
2022-12-15T10:35:36.963Z,-1.60
2022-12-15T10:40:55.848Z,-1.40
2022-12-15T10:46:20.564Z,-1.30
2022-12-15T10:51:25.450Z,-1.20
2022-12-15T10:56:33.217Z,-1.10
2022-12-15T11:01:35.990Z,-1.10
2022-12-15T11:06:42.601Z,-1.00
2022-12-15T11:12:12.041Z,-1.20
2022-12-15T11:17:22.348Z,-1.30
2022-12-15T11:22:38.267Z,-1.40
2022-12-15T11:27:43.417Z,-1.50
2022-12-15T11:32:53.494Z,-1.40
2022-12-15T11:38:05.346Z,-1.50
2022-12-15T11:43:29.892Z,-1.40
2022-12-15T11:48:54.722Z,-1.30
2022-12-15T11:54:06.552Z,-1.30
2022-12-15T11:59:39.872Z,-1.20
2022-12-15T12:05:00.582Z,-1.20
2022-12-15T12:10:43.800Z,-1.30
2022-12-15T12:16:09.316Z,-1.30
2022-12-15T12:21:23.747Z,-1.30
2022-12-15T12:26:48.752Z,-1.20
2022-12-15T12:32:02.205Z,-1.20
2022-12-15T12:37:51.114Z,-1.20
2022-12-15T12:42:58.300Z,-1.20
2022-12-15T12:48:07.376Z,-1.10
2022-12-15T12:53:27.172Z,-1.10
2022-12-15T12:58:39.681Z,-1.10
2022-12-15T13:03:45.104Z,-1.10
2022-12-15T13:08:51.376Z,-1.10
2022-12-15T13:13:53.745Z,-1.10
2022-12-15T13:19:06.995Z,-1.10
2022-12-15T13:24:35.457Z,-1.00
2022-12-15T13:30:01.010Z,-1.00
2022-12-15T13:35:21.287Z,-1.00
2022-12-15T13:40:23.433Z,-1.00
2022-12-15T13:45:37.220Z,-1.10
2022-12-15T13:50:51.523Z,-1.00
2022-12-15T13:56:14.247Z,-0.80
2022-12-15T14:06:57.438Z,-0.60
2022-12-15T14:12:03.369Z,-0.60
2022-12-15T14:17:08.978Z,-0.60
2022-12-15T14:22:28.980Z,-0.50
2022-12-15T14:27:33.258Z,-0.70
2022-12-15T14:32:35.563Z,-0.90
2022-12-15T14:37:37.322Z,-1.10
2022-12-15T14:42:40.773Z,-1.20
2022-12-15T14:48:40.057Z,-1.30
2022-12-15T14:53:35.799Z,-1.40
2022-12-15T14:58:40.686Z,-1.50
2022-12-15T15:03:42.412Z,-1.60
2022-12-15T15:08:52.672Z,-1.70
2022-12-15T15:13:56.645Z,-1.90
2022-12-15T15:19:02.587Z,-1.90
2022-12-15T15:24:26.084Z,-2.00
2022-12-15T15:29:38.492Z,-2.10
2022-12-15T15:34:40.171Z,-2.20
2022-12-15T15:39:42.322Z,-2.20
2022-12-15T15:44:44.413Z,-2.20
2022-12-15T15:49:47.088Z,-2.30
2022-12-15T15:54:49.145Z,-2.20
2022-12-15T15:59:51.092Z,-2.40
2022-12-15T16:04:52.827Z,-2.30
2022-12-15T16:09:55.421Z,-2.40
2022-12-15T16:14:57.552Z,-2.50
2022-12-15T16:19:59.889Z,-2.50
2022-12-15T16:25:02.454Z,-2.50
2022-12-15T16:30:19.055Z,-2.50
2022-12-15T16:35:21.240Z,-2.50
2022-12-15T16:40:26.121Z,-2.50
2022-12-15T16:45:30.599Z,-2.60
2022-12-15T16:50:37.716Z,-2.60
2022-12-15T16:55:40.272Z,-2.70
2022-12-15T17:00:43.111Z,-2.80
2022-12-15T17:05:52.282Z,-2.80
2022-12-15T17:10:54.611Z,-2.90
2022-12-15T17:15:56.738Z,-2.90
2022-12-15T17:21:05.184Z,-2.90
2022-12-15T17:26:25.767Z,-2.90
2022-12-15T17:31:35.336Z,-3.00
2022-12-15T17:36:37.899Z,-3.00
2022-12-15T17:47:02.297Z,-3.10
2022-12-15T17:52:11.492Z,-3.30
2022-12-15T17:57:13.327Z,-3.10
2022-12-15T18:02:15.512Z,-3.20
2022-12-15T18:07:21.537Z,-3.30
2022-12-15T18:12:26.371Z,-3.40
2022-12-15T18:17:28.254Z,-3.30
2022-12-15T18:22:30.530Z,-3.40
2022-12-15T18:27:32.303Z,-3.50
2022-12-15T18:32:39.894Z,-3.50
2022-12-15T18:37:41.608Z,-3.60
2022-12-15T18:42:45.278Z,-3.60
2022-12-15T18:47:47.243Z,-3.70
2022-12-15T18:52:59.333Z,-3.70
2022-12-15T18:58:01.819Z,-3.80
2022-12-15T19:03:03.779Z,-3.80
2022-12-15T19:08:38.141Z,-3.80
2022-12-15T19:13:40.196Z,-3.80
2022-12-15T19:19:00.439Z,-3.80
2022-12-15T19:24:02.600Z,-3.90
2022-12-15T19:29:18.970Z,-4.00
2022-12-15T19:34:20.735Z,-4.00
2022-12-15T19:39:23.938Z,-4.00
2022-12-15T19:44:26.216Z,-4.10
2022-12-15T19:49:27.911Z,-4.20
2022-12-15T19:54:30.706Z,-4.30
2022-12-15T19:59:32.345Z,-4.40
2022-12-15T20:04:34.085Z,-4.40
2022-12-15T20:09:35.776Z,-4.50
2022-12-15T20:14:37.592Z,-4.50
2022-12-15T20:19:39.270Z,-4.60
2022-12-15T20:24:41.401Z,-4.60
2022-12-15T20:29:43.831Z,-4.60
2022-12-15T20:34:45.813Z,-4.70
2022-12-15T20:39:49.440Z,-4.80
2022-12-15T20:44:54.567Z,-4.80
2022-12-15T20:49:56.351Z,-4.80
2022-12-15T20:54:58.027Z,-4.80
2022-12-15T20:59:59.727Z,-4.80
2022-12-15T21:05:03.298Z,-4.80
2022-12-15T21:10:05.290Z,-4.90
2022-12-15T21:15:22.217Z,-4.90
2022-12-15T21:20:23.974Z,-4.90
2022-12-15T21:25:26.710Z,-5.00
2022-12-15T21:30:28.503Z,-4.90
2022-12-15T21:35:32.081Z,-5.00
2022-12-15T21:40:33.914Z,-5.00
2022-12-15T21:45:35.664Z,-5.10
2022-12-15T21:50:38.585Z,-5.20
2022-12-15T21:55:41.129Z,-5.20
2022-12-15T22:00:45.880Z,-5.20
2022-12-15T22:05:47.807Z,-5.20
2022-12-15T22:10:51.064Z,-5.20
2022-12-15T22:15:54.695Z,-5.30
2022-12-15T22:20:56.723Z,-5.30
2022-12-15T22:25:58.455Z,-5.30
2022-12-15T22:31:01.584Z,-5.30
2022-12-15T22:36:03.560Z,-5.30
2022-12-15T22:41:06.775Z,-5.20
2022-12-15T22:46:12.528Z,-5.30
2022-12-15T22:51:16.534Z,-5.20
2022-12-15T22:56:23.370Z,-5.20
2022-12-15T23:01:26.903Z,-5.30
2022-12-15T23:06:29.302Z,-5.30
2022-12-15T23:11:41.423Z,-5.40
2022-12-15T23:16:46.922Z,-5.50
2022-12-15T23:21:48.654Z,-5.50
2022-12-15T23:26:50.344Z,-5.60
2022-12-15T23:31:52.079Z,-5.60
2022-12-15T23:36:53.769Z,-5.70
2022-12-15T23:41:55.472Z,-5.60
2022-12-15T23:46:57.891Z,-5.70
2022-12-15T23:51:59.586Z,-5.70
2022-12-15T23:57:02.099Z,-5.70
